sensor_id;sensor_type;location;lat;lon;timestamp;pressure;altitude;pressure_sealevel;temperature;humidity
74242;BME280;62599;49.146;10.426;2023-06-14T00:00:07;95390.41;;;12.02;60.83
74242;BME280;62599;49.146;10.426;2023-06-14T00:02:33;95393.53;;;12.04;60.64
74242;BME280;62599;49.146;10.426;2023-06-14T00:04:58;95391.09;;;11.99;60.84
74242;BME280;62599;49.146;10.426;2023-06-14T00:07:34;95389.00;;;11.92;60.96
74242;BME280;62599;49.146;10.426;2023-06-14T00:09:59;95398.03;;;11.84;61.13
74242;BME280;62599;49.146;10.426;2023-06-14T00:12:24;95399.03;;;11.79;60.38
74242;BME280;62599;49.146;10.426;2023-06-14T00:14:50;95387.47;;;11.79;60.57
74242;BME280;62599;49.146;10.426;2023-06-14T00:17:15;95390.50;;;11.77;60.55
74242;BME280;62599;49.146;10.426;2023-06-14T00:19:41;95392.34;;;11.73;60.20
74242;BME280;62599;49.146;10.426;2023-06-14T00:22:07;95389.88;;;11.68;60.94
74242;BME280;62599;49.146;10.426;2023-06-14T00:24:32;95383.19;;;11.62;60.45
74242;BME280;62599;49.146;10.426;2023-06-14T00:26:57;95389.69;;;11.61;60.37
74242;BME280;62599;49.146;10.426;2023-06-14T00:29:23;95379.16;;;11.56;60.70
74242;BME280;62599;49.146;10.426;2023-06-14T00:31:48;95377.16;;;11.53;61.37
74242;BME280;62599;49.146;10.426;2023-06-14T00:34:13;95373.56;;;11.49;61.65
74242;BME280;62599;49.146;10.426;2023-06-14T00:36:39;95372.69;;;11.45;61.53
74242;BME280;62599;49.146;10.426;2023-06-14T00:39:04;95375.72;;;11.43;62.38
74242;BME280;62599;49.146;10.426;2023-06-14T00:41:30;95373.72;;;11.40;62.38
74242;BME280;62599;49.146;10.426;2023-06-14T00:43:55;95376.66;;;11.35;62.92
74242;BME280;62599;49.146;10.426;2023-06-14T00:46:22;95367.59;;;11.27;63.23
74242;BME280;62599;49.146;10.426;2023-06-14T00:48:48;95372.78;;;11.20;63.88
74242;BME280;62599;49.146;10.426;2023-06-14T00:51:13;95362.69;;;11.17;63.66
74242;BME280;62599;49.146;10.426;2023-06-14T00:53:39;95367.19;;;11.13;64.09
74242;BME280;62599;49.146;10.426;2023-06-14T00:56:06;95373.28;;;11.10;64.72
74242;BME280;62599;49.146;10.426;2023-06-14T00:58:32;95371.03;;;11.12;64.12
74242;BME280;62599;49.146;10.426;2023-06-14T01:00:57;95368.06;;;11.17;64.08
74242;BME280;62599;49.146;10.426;2023-06-14T01:03:23;95370.66;;;11.26;64.01
74242;BME280;62599;49.146;10.426;2023-06-14T01:05:56;95364.31;;;11.34;63.73
74242;BME280;62599;49.146;10.426;2023-06-14T01:08:53;95363.97;;;11.36;63.44
74242;BME280;62599;49.146;10.426;2023-06-14T01:11:38;95368.47;;;11.31;63.42
74242;BME280;62599;49.146;10.426;2023-06-14T01:14:06;95366.81;;;11.27;64.10
74242;BME280;62599;49.146;10.426;2023-06-14T01:16:33;95373.00;;;11.27;64.30
74242;BME280;62599;49.146;10.426;2023-06-14T01:19:01;95371.31;;;11.23;63.94
74242;BME280;62599;49.146;10.426;2023-06-14T01:21:27;95375.03;;;11.18;63.81
74242;BME280;62599;49.146;10.426;2023-06-14T01:23:53;95370.34;;;11.15;64.48
74242;BME280;62599;49.146;10.426;2023-06-14T01:26:21;95368.28;;;11.24;64.66
74242;BME280;62599;49.146;10.426;2023-06-14T01:28:47;95371.63;;;11.33;64.42
74242;BME280;62599;49.146;10.426;2023-06-14T01:31:17;95367.53;;;11.40;64.25
74242;BME280;62599;49.146;10.426;2023-06-14T01:33:45;95368.34;;;11.40;64.66
74242;BME280;62599;49.146;10.426;2023-06-14T01:36:11;95368.47;;;11.31;64.37
74242;BME280;62599;49.146;10.426;2023-06-14T01:38:38;95362.69;;;11.17;65.07
74242;BME280;62599;49.146;10.426;2023-06-14T01:41:05;95360.38;;;11.03;66.22
74242;BME280;62599;49.146;10.426;2023-06-14T01:43:32;95367.72;;;10.91;66.08
74242;BME280;62599;49.146;10.426;2023-06-14T01:45:59;95360.47;;;10.79;66.98
74242;BME280;62599;49.146;10.426;2023-06-14T01:48:25;95363.25;;;10.70;66.79
74242;BME280;62599;49.146;10.426;2023-06-14T01:50:52;95355.31;;;10.62;67.40
74242;BME280;62599;49.146;10.426;2023-06-14T01:53:17;95353.19;;;10.55;67.05
74242;BME280;62599;49.146;10.426;2023-06-14T01:55:42;95354.13;;;10.47;67.84
74242;BME280;62599;49.146;10.426;2023-06-14T01:58:11;95355.47;;;10.41;68.35
74242;BME280;62599;49.146;10.426;2023-06-14T02:00:38;95358.72;;;10.34;68.74
74242;BME280;62599;49.146;10.426;2023-06-14T02:03:03;95357.50;;;10.31;68.83
74242;BME280;62599;49.146;10.426;2023-06-14T02:05:30;95354.34;;;10.29;69.22
74242;BME280;62599;49.146;10.426;2023-06-14T02:07:55;95356.94;;;10.26;69.50
74242;BME280;62599;49.146;10.426;2023-06-14T02:10:21;95353.44;;;10.25;69.17
74242;BME280;62599;49.146;10.426;2023-06-14T02:12:46;95354.56;;;10.24;69.82
74242;BME280;62599;49.146;10.426;2023-06-14T02:15:12;95363.09;;;10.26;69.86
74242;BME280;62599;49.146;10.426;2023-06-14T02:17:45;95350.41;;;10.27;69.02
74242;BME280;62599;49.146;10.426;2023-06-14T02:20:12;95357.25;;;10.24;69.84
74242;BME280;62599;49.146;10.426;2023-06-14T02:22:38;95359.00;;;10.20;69.24
74242;BME280;62599;49.146;10.426;2023-06-14T02:25:04;95368.44;;;10.14;69.78
74242;BME280;62599;49.146;10.426;2023-06-14T02:27:29;95368.66;;;10.09;70.17
74242;BME280;62599;49.146;10.426;2023-06-14T02:29:55;95366.78;;;10.09;69.81
74242;BME280;62599;49.146;10.426;2023-06-14T02:32:20;95371.34;;;10.09;69.78
74242;BME280;62599;49.146;10.426;2023-06-14T02:34:46;95377.19;;;10.11;69.65
74242;BME280;62599;49.146;10.426;2023-06-14T02:37:15;95379.41;;;10.09;69.03
74242;BME280;62599;49.146;10.426;2023-06-14T02:39:41;95381.00;;;10.10;69.57
74242;BME280;62599;49.146;10.426;2023-06-14T02:42:06;95379.09;;;10.10;69.72
74242;BME280;62599;49.146;10.426;2023-06-14T02:44:32;95374.28;;;10.16;70.26
74242;BME280;62599;49.146;10.426;2023-06-14T02:46:57;95379.09;;;10.10;69.69
74242;BME280;62599;49.146;10.426;2023-06-14T02:49:24;95373.25;;;9.96;69.98
74242;BME280;62599;49.146;10.426;2023-06-14T02:51:49;95377.81;;;9.83;70.97
74242;BME280;62599;49.146;10.426;2023-06-14T02:54:15;95380.16;;;9.73;71.87
74242;BME280;62599;49.146;10.426;2023-06-14T02:56:40;95377.69;;;9.68;72.60
74242;BME280;62599;49.146;10.426;2023-06-14T02:59:06;95378.69;;;9.63;73.01
74242;BME280;62599;49.146;10.426;2023-06-14T03:01:32;95378.09;;;9.57;73.12
74242;BME280;62599;49.146;10.426;2023-06-14T03:04:06;95377.53;;;9.52;73.93
74242;BME280;62599;49.146;10.426;2023-06-14T03:06:32;95375.84;;;9.47;74.33
74242;BME280;62599;49.146;10.426;2023-06-14T03:09:02;95372.59;;;9.42;74.44
74242;BME280;62599;49.146;10.426;2023-06-14T03:11:30;95374.94;;;9.43;75.66
74242;BME280;62599;49.146;10.426;2023-06-14T03:13:55;95373.38;;;9.42;74.98
74242;BME280;62599;49.146;10.426;2023-06-14T03:16:22;95374.50;;;9.41;74.99
74242;BME280;62599;49.146;10.426;2023-06-14T03:18:50;95377.97;;;9.42;75.20
74242;BME280;62599;49.146;10.426;2023-06-14T03:21:16;95373.72;;;9.40;75.30
74242;BME280;62599;49.146;10.426;2023-06-14T03:23:42;95376.41;;;9.40;75.36
74242;BME280;62599;49.146;10.426;2023-06-14T03:26:08;95376.41;;;9.40;75.80
74242;BME280;62599;49.146;10.426;2023-06-14T03:28:33;95382.47;;;9.50;74.98
74242;BME280;62599;49.146;10.426;2023-06-14T03:31:02;95379.53;;;9.55;75.22
74242;BME280;62599;49.146;10.426;2023-06-14T03:33:27;95387.19;;;9.53;75.36
74242;BME280;62599;49.146;10.426;2023-06-14T03:35:53;95398.72;;;9.53;75.21
74242;BME280;62599;49.146;10.426;2023-06-14T03:38:18;95399.38;;;9.50;75.23
74242;BME280;62599;49.146;10.426;2023-06-14T03:40:44;95397.03;;;9.49;75.65
74242;BME280;62599;49.146;10.426;2023-06-14T03:43:09;95400.03;;;9.47;75.93
74242;BME280;62599;49.146;10.426;2023-06-14T03:45:35;95397.94;;;9.53;76.01
74242;BME280;62599;49.146;10.426;2023-06-14T03:48:00;95400.75;;;9.56;75.87
74242;BME280;62599;49.146;10.426;2023-06-14T03:50:26;95399.09;;;9.64;75.73
74242;BME280;62599;49.146;10.426;2023-06-14T03:52:52;95408.53;;;9.70;75.44
74242;BME280;62599;49.146;10.426;2023-06-14T03:55:18;95409.84;;;9.76;75.72
74242;BME280;62599;49.146;10.426;2023-06-14T03:57:44;95418.50;;;9.82;75.32
74242;BME280;62599;49.146;10.426;2023-06-14T04:00:09;95416.38;;;9.87;75.36
74242;BME280;62599;49.146;10.426;2023-06-14T04:02:36;95420.44;;;9.94;75.86
74242;BME280;62599;49.146;10.426;2023-06-14T04:05:02;95412.94;;;9.99;75.96
74242;BME280;62599;49.146;10.426;2023-06-14T04:07:27;95422.47;;;10.09;76.64
74242;BME280;62599;49.146;10.426;2023-06-14T04:09:54;95427.00;;;10.17;76.80
74242;BME280;62599;49.146;10.426;2023-06-14T04:12:19;95422.00;;;10.28;76.19
74242;BME280;62599;49.146;10.426;2023-06-14T04:14:45;95423.00;;;10.35;76.29
74242;BME280;62599;49.146;10.426;2023-06-14T04:17:11;95424.31;;;10.42;76.09
74242;BME280;62599;49.146;10.426;2023-06-14T04:19:37;95414.13;;;10.47;76.84
74242;BME280;62599;49.146;10.426;2023-06-14T04:22:03;95431.75;;;10.57;76.97
74242;BME280;62599;49.146;10.426;2023-06-14T04:24:28;95425.00;;;10.63;76.72
74242;BME280;62599;49.146;10.426;2023-06-14T04:26:58;95425.22;;;10.70;76.73
74242;BME280;62599;49.146;10.426;2023-06-14T04:29:24;95427.03;;;10.78;76.80
74242;BME280;62599;49.146;10.426;2023-06-14T04:31:53;95433.06;;;10.88;76.80
74242;BME280;62599;49.146;10.426;2023-06-14T04:34:19;95432.16;;;10.96;76.81
74242;BME280;62599;49.146;10.426;2023-06-14T04:36:46;95437.06;;;11.06;76.80
74242;BME280;62599;49.146;10.426;2023-06-14T04:39:15;95432.00;;;11.17;76.30
74242;BME280;62599;49.146;10.426;2023-06-14T04:41:42;95439.03;;;11.33;75.45
74242;BME280;62599;49.146;10.426;2023-06-14T04:44:08;95433.22;;;11.47;75.15
74242;BME280;62599;49.146;10.426;2023-06-14T04:46:35;95437.03;;;11.59;74.62
74242;BME280;62599;49.146;10.426;2023-06-14T04:49:10;95435.75;;;11.68;73.53
74242;BME280;62599;49.146;10.426;2023-06-14T04:51:39;95440.66;;;11.78;73.77
74242;BME280;62599;49.146;10.426;2023-06-14T04:54:05;95443.91;;;11.84;73.65
74242;BME280;62599;49.146;10.426;2023-06-14T04:56:35;95444.53;;;11.93;73.39
74242;BME280;62599;49.146;10.426;2023-06-14T04:59:02;95450.56;;;12.02;72.87
74242;BME280;62599;49.146;10.426;2023-06-14T05:01:30;95443.06;;;12.12;72.71
74242;BME280;62599;49.146;10.426;2023-06-14T05:03:57;95445.63;;;12.20;71.70
74242;BME280;62599;49.146;10.426;2023-06-14T05:06:22;95451.63;;;12.29;71.54
74242;BME280;62599;49.146;10.426;2023-06-14T05:08:48;95456.06;;;12.38;71.53
74242;BME280;62599;49.146;10.426;2023-06-14T05:11:13;95451.63;;;12.45;71.33
74242;BME280;62599;49.146;10.426;2023-06-14T05:13:39;95448.06;;;12.57;70.61
74242;BME280;62599;49.146;10.426;2023-06-14T05:16:05;95444.41;;;12.65;69.73
74242;BME280;62599;49.146;10.426;2023-06-14T05:18:31;95449.97;;;12.72;69.44
74242;BME280;62599;49.146;10.426;2023-06-14T05:20:59;95444.72;;;12.80;69.51
74242;BME280;62599;49.146;10.426;2023-06-14T05:23:25;95456.56;;;12.91;68.96
74242;BME280;62599;49.146;10.426;2023-06-14T05:25:50;95454.38;;;12.96;68.89
74242;BME280;62599;49.146;10.426;2023-06-14T05:28:16;95451.41;;;13.01;68.99
74242;BME280;62599;49.146;10.426;2023-06-14T05:30:41;95462.00;;;13.10;67.97
74242;BME280;62599;49.146;10.426;2023-06-14T05:33:07;95461.75;;;13.15;68.43
74242;BME280;62599;49.146;10.426;2023-06-14T05:35:32;95465.38;;;13.23;68.12
74242;BME280;62599;49.146;10.426;2023-06-14T05:37:58;95465.66;;;13.34;67.69
74242;BME280;62599;49.146;10.426;2023-06-14T05:40:23;95466.94;;;13.40;68.00
74242;BME280;62599;49.146;10.426;2023-06-14T05:42:48;95476.00;;;13.47;66.66
74242;BME280;62599;49.146;10.426;2023-06-14T05:45:14;95482.03;;;13.60;67.18
74242;BME280;62599;49.146;10.426;2023-06-14T05:47:41;95479.06;;;13.65;66.45
74242;BME280;62599;49.146;10.426;2023-06-14T05:50:07;95488.59;;;13.79;66.03
74242;BME280;62599;49.146;10.426;2023-06-14T05:52:34;95484.47;;;13.85;65.22
74242;BME280;62599;49.146;10.426;2023-06-14T05:55:00;95487.31;;;13.92;65.24
74242;BME280;62599;49.146;10.426;2023-06-14T05:57:26;95481.25;;;13.99;64.84
74242;BME280;62599;49.146;10.426;2023-06-14T05:59:51;95474.84;;;14.07;65.01
74242;BME280;62599;49.146;10.426;2023-06-14T06:02:17;95485.09;;;14.17;64.66
74242;BME280;62599;49.146;10.426;2023-06-14T06:04:42;95482.13;;;14.26;64.11
74242;BME280;62599;49.146;10.426;2023-06-14T06:07:08;95480.69;;;14.32;63.49
74242;BME280;62599;49.146;10.426;2023-06-14T06:09:33;95484.44;;;14.47;63.53
74242;BME280;62599;49.146;10.426;2023-06-14T06:11:58;95484.66;;;14.57;62.65
74242;BME280;62599;49.146;10.426;2023-06-14T06:14:24;95486.88;;;14.75;62.07
74242;BME280;62599;49.146;10.426;2023-06-14T06:16:50;95485.53;;;14.88;60.64
74242;BME280;62599;49.146;10.426;2023-06-14T06:19:15;95492.22;;;14.94;61.04
74242;BME280;62599;49.146;10.426;2023-06-14T06:21:41;95494.94;;;14.94;59.99
74242;BME280;62599;49.146;10.426;2023-06-14T06:24:06;95502.75;;;14.99;60.03
74242;BME280;62599;49.146;10.426;2023-06-14T06:26:32;95501.50;;;14.93;59.47
74242;BME280;62599;49.146;10.426;2023-06-14T06:28:58;95503.84;;;14.95;59.44
74242;BME280;62599;49.146;10.426;2023-06-14T06:31:24;95502.41;;;15.01;59.80
74242;BME280;62599;49.146;10.426;2023-06-14T06:33:49;95504.13;;;15.12;60.28
74242;BME280;62599;49.146;10.426;2023-06-14T06:36:15;95500.09;;;15.29;59.38
74242;BME280;62599;49.146;10.426;2023-06-14T06:38:41;95496.75;;;15.39;60.37
74242;BME280;62599;49.146;10.426;2023-06-14T06:41:07;95508.59;;;15.54;59.04
74242;BME280;62599;49.146;10.426;2023-06-14T06:43:32;95503.38;;;15.69;58.43
74242;BME280;62599;49.146;10.426;2023-06-14T06:45:58;95499.25;;;15.82;58.78
74242;BME280;62599;49.146;10.426;2023-06-14T06:48:23;95509.16;;;15.97;57.30
74242;BME280;62599;49.146;10.426;2023-06-14T06:50:48;95504.97;;;16.03;57.20
74242;BME280;62599;49.146;10.426;2023-06-14T06:53:14;95509.22;;;16.04;56.86
74242;BME280;62599;49.146;10.426;2023-06-14T06:55:40;95506.66;;;16.19;56.08
74242;BME280;62599;49.146;10.426;2023-06-14T06:58:05;95511.38;;;16.22;56.33
74242;BME280;62599;49.146;10.426;2023-06-14T07:00:31;95518.66;;;16.14;56.30
74242;BME280;62599;49.146;10.426;2023-06-14T07:02:57;95521.03;;;16.19;56.43
74242;BME280;62599;49.146;10.426;2023-06-14T07:05:23;95518.78;;;16.25;56.00
74242;BME280;62599;49.146;10.426;2023-06-14T07:07:48;95521.19;;;16.33;56.07
74242;BME280;62599;49.146;10.426;2023-06-14T07:10:13;95520.50;;;16.40;55.92
74242;BME280;62599;49.146;10.426;2023-06-14T07:12:39;95519.38;;;16.45;55.64
74242;BME280;62599;49.146;10.426;2023-06-14T07:15:08;95517.53;;;16.52;55.34
74242;BME280;62599;49.146;10.426;2023-06-14T07:17:34;95525.44;;;16.68;54.93
74242;BME280;62599;49.146;10.426;2023-06-14T07:20:01;95519.97;;;16.65;54.62
74242;BME280;62599;49.146;10.426;2023-06-14T07:22:38;95531.69;;;16.72;54.15
74242;BME280;62599;49.146;10.426;2023-06-14T07:25:04;95523.66;;;16.83;54.50
74242;BME280;62599;49.146;10.426;2023-06-14T07:27:30;95531.91;;;16.94;55.04
74242;BME280;62599;49.146;10.426;2023-06-14T07:29:55;95527.25;;;16.94;54.27
74242;BME280;62599;49.146;10.426;2023-06-14T07:32:20;95527.28;;;16.98;53.81
74242;BME280;62599;49.146;10.426;2023-06-14T07:34:46;95538.56;;;16.96;53.07
74242;BME280;62599;49.146;10.426;2023-06-14T07:37:11;95538.19;;;17.01;53.39
74242;BME280;62599;49.146;10.426;2023-06-14T07:39:37;95542.88;;;17.04;53.68
74242;BME280;62599;49.146;10.426;2023-06-14T07:42:02;95537.88;;;17.14;53.65
74242;BME280;62599;49.146;10.426;2023-06-14T07:44:29;95539.84;;;17.13;52.88
74242;BME280;62599;49.146;10.426;2023-06-14T07:46:56;95539.13;;;17.20;52.96
74242;BME280;62599;49.146;10.426;2023-06-14T07:49:23;95541.25;;;17.44;53.12
74242;BME280;62599;49.146;10.426;2023-06-14T07:51:48;95551.84;;;17.64;51.50
74242;BME280;62599;49.146;10.426;2023-06-14T07:54:15;95547.59;;;17.66;51.74
74242;BME280;62599;49.146;10.426;2023-06-14T07:56:40;95545.25;;;17.65;51.08
74242;BME280;62599;49.146;10.426;2023-06-14T07:59:06;95546.06;;;17.69;51.74
74242;BME280;62599;49.146;10.426;2023-06-14T08:01:32;95548.09;;;17.83;50.87
74242;BME280;62599;49.146;10.426;2023-06-14T08:03:58;95548.19;;;18.00;50.01
74242;BME280;62599;49.146;10.426;2023-06-14T08:06:24;95559.53;;;18.13;49.51
74242;BME280;62599;49.146;10.426;2023-06-14T08:08:49;95543.59;;;18.22;48.98
74242;BME280;62599;49.146;10.426;2023-06-14T08:11:14;95553.34;;;18.23;48.27
74242;BME280;62599;49.146;10.426;2023-06-14T08:13:40;95556.03;;;18.13;49.14
74242;BME280;62599;49.146;10.426;2023-06-14T08:16:05;95560.34;;;18.21;49.15
74242;BME280;62599;49.146;10.426;2023-06-14T08:18:31;95553.72;;;18.22;49.56
74242;BME280;62599;49.146;10.426;2023-06-14T08:20:56;95556.13;;;18.34;47.26
74242;BME280;62599;49.146;10.426;2023-06-14T08:23:25;95554.22;;;18.52;47.88
74242;BME280;62599;49.146;10.426;2023-06-14T08:25:51;95558.19;;;18.73;47.96
74242;BME280;62599;49.146;10.426;2023-06-14T08:28:16;95553.91;;;18.72;47.85
74242;BME280;62599;49.146;10.426;2023-06-14T08:30:42;95552.34;;;18.71;47.24
74242;BME280;62599;49.146;10.426;2023-06-14T08:33:08;95553.50;;;18.77;47.23
74242;BME280;62599;49.146;10.426;2023-06-14T08:35:33;95556.66;;;18.83;46.40
74242;BME280;62599;49.146;10.426;2023-06-14T08:37:58;95555.47;;;18.91;47.54
74242;BME280;62599;49.146;10.426;2023-06-14T08:40:24;95559.00;;;19.20;46.56
74242;BME280;62599;49.146;10.426;2023-06-14T08:42:53;95560.97;;;19.27;45.95
74242;BME280;62599;49.146;10.426;2023-06-14T08:45:21;95555.13;;;19.28;45.40
74242;BME280;62599;49.146;10.426;2023-06-14T08:47:47;95556.28;;;19.41;46.10
74242;BME280;62599;49.146;10.426;2023-06-14T08:50:21;95556.28;;;19.41;46.17
74242;BME280;62599;49.146;10.426;2023-06-14T08:52:51;95554.31;;;19.24;44.68
74242;BME280;62599;49.146;10.426;2023-06-14T08:55:18;95560.59;;;19.21;45.94
74242;BME280;62599;49.146;10.426;2023-06-14T08:57:46;95556.66;;;19.47;45.03
74242;BME280;62599;49.146;10.426;2023-06-14T09:00:13;95559.38;;;19.54;44.50
74242;BME280;62599;49.146;10.426;2023-06-14T09:02:39;95551.56;;;19.74;43.86
74242;BME280;62599;49.146;10.426;2023-06-14T09:05:12;95565.19;;;19.88;43.05
74242;BME280;62599;49.146;10.426;2023-06-14T09:07:43;95556.22;;;19.91;42.44
74242;BME280;62599;49.146;10.426;2023-06-14T09:12:36;95555.03;;;19.89;42.35
74242;BME280;62599;49.146;10.426;2023-06-14T09:15:02;95553.88;;;19.93;42.07
74242;BME280;62599;49.146;10.426;2023-06-14T09:17:32;95562.47;;;19.92;42.14
74242;BME280;62599;49.146;10.426;2023-06-14T09:20:00;95553.81;;;20.01;41.60
74242;BME280;62599;49.146;10.426;2023-06-14T09:22:25;95560.47;;;20.00;41.26
74242;BME280;62599;49.146;10.426;2023-06-14T09:24:50;95568.59;;;20.28;40.92
74242;BME280;62599;49.146;10.426;2023-06-14T09:27:16;95563.84;;;20.39;40.77
74242;BME280;62599;49.146;10.426;2023-06-14T09:29:41;95574.41;;;20.41;41.35
74242;BME280;62599;49.146;10.426;2023-06-14T09:32:07;95571.66;;;20.52;40.64
74242;BME280;62599;49.146;10.426;2023-06-14T09:34:33;95570.47;;;20.53;40.11
74242;BME280;62599;49.146;10.426;2023-06-14T09:37:00;95572.41;;;20.49;40.30
74242;BME280;62599;49.146;10.426;2023-06-14T09:39:26;95570.78;;;20.62;40.57
74242;BME280;62599;49.146;10.426;2023-06-14T09:41:52;95557.06;;;20.69;39.73
74242;BME280;62599;49.146;10.426;2023-06-14T09:44:17;95560.59;;;20.66;39.64
74242;BME280;62599;49.146;10.426;2023-06-14T09:46:44;95556.72;;;20.67;40.49
74242;BME280;62599;49.146;10.426;2023-06-14T09:49:09;95561.59;;;20.97;40.38
74242;BME280;62599;49.146;10.426;2023-06-14T09:51:37;95564.22;;;21.15;38.26
74242;BME280;62599;49.146;10.426;2023-06-14T09:54:08;95565.66;;;21.30;37.98
74242;BME280;62599;49.146;10.426;2023-06-14T09:56:46;95563.91;;;21.54;38.45
74242;BME280;62599;49.146;10.426;2023-06-14T09:59:13;95558.50;;;21.47;37.89
74242;BME280;62599;49.146;10.426;2023-06-14T10:01:42;95563.22;;;21.47;38.13
74242;BME280;62599;49.146;10.426;2023-06-14T10:04:09;95561.47;;;21.63;37.84
74242;BME280;62599;49.146;10.426;2023-06-14T10:06:40;95566.19;;;21.63;37.53
74242;BME280;62599;49.146;10.426;2023-06-14T10:09:08;95559.75;;;21.80;36.66
74242;BME280;62599;49.146;10.426;2023-06-14T10:11:35;95561.09;;;21.99;36.75
74242;BME280;62599;49.146;10.426;2023-06-14T10:14:02;95570.28;;;22.23;35.81
74242;BME280;62599;49.146;10.426;2023-06-14T10:16:37;95562.44;;;22.56;36.42
74242;BME280;62599;49.146;10.426;2023-06-14T10:19:37;95560.78;;;22.93;34.85
74242;BME280;62599;49.146;10.426;2023-06-14T10:22:19;95568.09;;;23.26;34.45
74242;BME280;62599;49.146;10.426;2023-06-14T10:24:48;95573.84;;;23.59;33.69
74242;BME280;62599;49.146;10.426;2023-06-14T10:27:15;95569.94;;;23.84;32.68
74242;BME280;62599;49.146;10.426;2023-06-14T10:32:17;95567.31;;;23.76;31.77
74242;BME280;62599;49.146;10.426;2023-06-14T10:34:44;95568.53;;;23.48;31.62
74242;BME280;62599;49.146;10.426;2023-06-14T10:37:13;95553.53;;;23.76;32.43
74242;BME280;62599;49.146;10.426;2023-06-14T10:39:40;95566.00;;;24.05;32.37
74242;BME280;62599;49.146;10.426;2023-06-14T10:42:06;95562.75;;;24.10;31.85
74242;BME280;62599;49.146;10.426;2023-06-14T10:44:39;95554.94;;;24.48;31.04
74242;BME280;62599;49.146;10.426;2023-06-14T10:47:25;95560.84;;;23.87;32.42
74242;BME280;62599;49.146;10.426;2023-06-14T10:49:56;95561.22;;;23.38;32.68
74242;BME280;62599;49.146;10.426;2023-06-14T10:52:25;95565.03;;;23.71;32.61
74242;BME280;62599;49.146;10.426;2023-06-14T10:55:04;95563.47;;;23.94;32.27
74242;BME280;62599;49.146;10.426;2023-06-14T10:57:32;95566.69;;;23.65;32.54
74242;BME280;62599;49.146;10.426;2023-06-14T10:59:59;95555.44;;;23.33;33.10
74242;BME280;62599;49.146;10.426;2023-06-14T11:04:53;95562.91;;;22.78;33.54
74242;BME280;62599;49.146;10.426;2023-06-14T11:12:13;95546.88;;;22.11;34.66
74242;BME280;62599;49.146;10.426;2023-06-14T11:14:39;95545.94;;;22.25;34.48
74242;BME280;62599;49.146;10.426;2023-06-14T11:17:05;95546.41;;;22.51;35.39
74242;BME280;62599;49.146;10.426;2023-06-14T11:19:30;95541.13;;;22.91;35.04
74242;BME280;62599;49.146;10.426;2023-06-14T11:21:57;95548.31;;;23.59;34.55
74242;BME280;62599;49.146;10.426;2023-06-14T11:24:22;95552.84;;;23.72;34.01
74242;BME280;62599;49.146;10.426;2023-06-14T11:26:47;95555.81;;;23.82;33.30
74242;BME280;62599;49.146;10.426;2023-06-14T11:29:15;95557.81;;;24.01;33.02
74242;BME280;62599;49.146;10.426;2023-06-14T11:31:44;95558.59;;;24.21;32.81
74242;BME280;62599;49.146;10.426;2023-06-14T11:34:13;95553.59;;;24.16;32.20
74242;BME280;62599;49.146;10.426;2023-06-14T11:36:39;95556.59;;;24.02;31.48
74242;BME280;62599;49.146;10.426;2023-06-14T11:39:07;95555.41;;;24.03;32.02
74242;BME280;62599;49.146;10.426;2023-06-14T11:44:02;95557.94;;;24.73;30.94
74242;BME280;62599;49.146;10.426;2023-06-14T11:46:28;95555.97;;;24.54;30.88
74242;BME280;62599;49.146;10.426;2023-06-14T11:48:53;95557.53;;;24.35;30.70
74242;BME280;62599;49.146;10.426;2023-06-14T11:51:19;95553.44;;;24.43;31.24
74242;BME280;62599;49.146;10.426;2023-06-14T11:53:46;95551.69;;;24.33;31.13
74242;BME280;62599;49.146;10.426;2023-06-14T11:56:12;95549.47;;;24.24;30.88
74242;BME280;62599;49.146;10.426;2023-06-14T11:58:37;95553.03;;;24.05;31.68
74242;BME280;62599;49.146;10.426;2023-06-14T12:01:03;95550.72;;;23.80;31.73
74242;BME280;62599;49.146;10.426;2023-06-14T12:03:29;95547.38;;;23.45;32.02
74242;BME280;62599;49.146;10.426;2023-06-14T12:06:08;95541.66;;;23.36;32.34
74242;BME280;62599;49.146;10.426;2023-06-14T12:08:35;95543.19;;;23.61;33.11
74242;BME280;62599;49.146;10.426;2023-06-14T12:11:06;95542.31;;;23.67;33.26
74242;BME280;62599;49.146;10.426;2023-06-14T12:13:33;95538.69;;;24.14;33.60
74242;BME280;62599;49.146;10.426;2023-06-14T12:15:59;95542.31;;;23.67;33.02
74242;BME280;62599;49.146;10.426;2023-06-14T12:18:38;95540.59;;;23.03;33.29
74242;BME280;62599;49.146;10.426;2023-06-14T12:21:05;95546.28;;;22.89;34.27
74242;BME280;62599;49.146;10.426;2023-06-14T12:23:58;95538.09;;;23.12;34.33
74242;BME280;62599;49.146;10.426;2023-06-14T12:26:24;95543.97;;;23.14;34.33
74242;BME280;62599;49.146;10.426;2023-06-14T12:28:51;95542.16;;;23.74;34.48
74242;BME280;62599;49.146;10.426;2023-06-14T12:31:17;95546.88;;;24.17;32.58
74242;BME280;62599;49.146;10.426;2023-06-14T12:33:44;95548.94;;;24.53;32.67
74242;BME280;62599;49.146;10.426;2023-06-14T12:36:11;95556.69;;;24.58;31.75
74242;BME280;62599;49.146;10.426;2023-06-14T12:38:37;95550.75;;;24.20;32.14
74242;BME280;62599;49.146;10.426;2023-06-14T12:41:03;95558.88;;;24.07;32.69
74242;BME280;62599;49.146;10.426;2023-06-14T12:43:29;95545.38;;;23.93;32.92
74242;BME280;62599;49.146;10.426;2023-06-14T12:45:54;95551.88;;;23.83;33.08
74242;BME280;62599;49.146;10.426;2023-06-14T12:48:20;95556.19;;;24.23;33.10
74242;BME280;62599;49.146;10.426;2023-06-14T12:50:46;95554.91;;;23.88;32.45
74242;BME280;62599;49.146;10.426;2023-06-14T12:53:11;95552.81;;;24.16;32.71
74242;BME280;62599;49.146;10.426;2023-06-14T12:55:37;95560.78;;;24.10;33.19
74242;BME280;62599;49.146;10.426;2023-06-14T12:58:02;95558.16;;;24.03;32.62
74242;BME280;62599;49.146;10.426;2023-06-14T13:00:28;95564.72;;;23.66;33.30
74242;BME280;62599;49.146;10.426;2023-06-14T13:02:56;95566.34;;;23.87;33.24